Time;durP1;ratioP1;P1;durP2;ratioP2;P2;SDS_P1;SDS_P2;PMS_P1;PMS_P2;Temp;Humidity;BMP_temperature;BMP_pressure;BME280_temperature;BME280_humidity;BME280_pressure;Samples;Min_cycle;Max_cycle;Signal;HPM_P1;HPM_P2
2022/08/18 00:01:40;;;;;;;4.22;3.45;;;;;;;;;;5070211;28;20111;-75
2022/08/18 00:04:07;;;;;;;4.38;3.33;;;;;;;;;;5052469;28;20033;-75
2022/08/18 00:06:32;;;;;;;9.15;3.70;;;;;;;;;;5070836;28;20099;-76
2022/08/18 00:08:59;;;;;;;5.95;3.15;;;;;;;;;;5051851;28;20219;-77
2022/08/18 00:11:25;;;;;;;5.95;3.35;;;;;;;;;;5069834;28;20469;-74
2022/08/18 00:13:50;;;;;;;7.28;3.65;;;;;;;;;;5069692;28;20020;-76
2022/08/18 00:16:15;;;;;;;5.38;3.45;;;;;;;;;;5069913;28;20034;-74
2022/08/18 00:18:41;;;;;;;5.20;3.10;;;;;;;;;;5069768;28;20028;-75
2022/08/18 00:21:06;;;;;;;4.70;3.20;;;;;;;;;;5054235;28;20297;-73
2022/08/18 00:23:31;;;;;;;4.20;3.42;;;;;;;;;;5054728;28;20281;-75
2022/08/18 00:25:58;;;;;;;5.97;3.40;;;;;;;;;;5073466;28;20025;-75
2022/08/18 00:28:23;;;;;;;5.85;3.70;;;;;;;;;;5073361;28;20261;-75
2022/08/18 00:30:48;;;;;;;4.88;3.35;;;;;;;;;;5072287;28;20028;-74
2022/08/18 00:33:14;;;;;;;6.50;3.63;;;;;;;;;;5072940;28;20027;-76
2022/08/18 00:35:39;;;;;;;4.67;3.50;;;;;;;;;;5073060;28;20341;-76
2022/08/18 00:38:07;;;;;;;5.47;3.80;;;;;;;;;;5073261;28;20634;-75
2022/08/18 00:40:41;;;;;;;10.55;3.70;;;;;;;;;;5073125;28;20356;-75
2022/08/18 00:43:11;;;;;;;7.43;3.70;;;;;;;;;;5055045;28;20032;-76
2022/08/18 00:45:39;;;;;;;6.68;3.40;;;;;;;;;;5073066;28;20024;-76
2022/08/18 00:48:07;;;;;;;5.13;3.63;;;;;;;;;;5072651;28;20020;-75
2022/08/18 00:50:41;;;;;;;5.95;3.60;;;;;;;;;;5072829;28;20539;-76
2022/08/18 00:53:29;;;;;;;4.82;3.60;;;;;;;;;;5073225;28;20359;-74
2022/08/18 00:55:59;;;;;;;4.30;3.42;;;;;;;;;;5054546;28;20024;-75
2022/08/18 00:58:32;;;;;;;7.30;3.67;;;;;;;;;;5072496;28;20036;-75
2022/08/18 01:01:01;;;;;;;5.25;3.50;;;;;;;;;;5072969;28;20473;-74
2022/08/18 01:03:28;;;;;;;4.72;3.58;;;;;;;;;;5072502;28;20040;-76
2022/08/18 01:06:03;;;;;;;5.85;3.78;;;;;;;;;;5072866;28;20477;-75
2022/08/18 01:08:29;;;;;;;4.15;3.75;;;;;;;;;;5072847;28;20412;-75
2022/08/18 01:10:56;;;;;;;4.72;4.00;;;;;;;;;;5072540;28;20028;-76
2022/08/18 01:13:26;;;;;;;5.10;3.72;;;;;;;;;;5072518;28;20017;-74
2022/08/18 01:15:51;;;;;;;5.35;3.75;;;;;;;;;;5072684;28;20028;-74
2022/08/18 01:23:56;;;;;;;4.22;3.78;;;;;;;;;;5072623;28;20028;-73
2022/08/18 01:26:22;;;;;;;5.85;3.95;;;;;;;;;;5072700;28;20162;-74
2022/08/18 01:28:48;;;;;;;5.32;3.47;;;;;;;;;;5072753;28;20021;-74
2022/08/18 01:31:37;;;;;;;6.40;3.67;;;;;;;;;;5072493;28;20111;-74
2022/08/18 01:34:05;;;;;;;4.68;4.00;;;;;;;;;;5072628;28;20508;-75
2022/08/18 01:36:33;;;;;;;4.53;3.55;;;;;;;;;;5072210;28;20497;-73
2022/08/18 01:38:59;;;;;;;4.57;3.75;;;;;;;;;;5072294;28;20043;-73
2022/08/18 01:41:25;;;;;;;5.65;3.90;;;;;;;;;;5072948;28;20028;-76
2022/08/18 01:43:50;;;;;;;4.63;3.75;;;;;;;;;;5058040;28;20024;-76
2022/08/18 01:46:20;;;;;;;6.72;3.97;;;;;;;;;;5058234;28;20119;-76
2022/08/18 01:48:47;;;;;;;5.70;3.45;;;;;;;;;;5076083;28;20024;-75
2022/08/18 01:51:13;;;;;;;5.20;4.00;;;;;;;;;;5058119;28;20031;-75
2022/08/18 01:53:38;;;;;;;9.18;4.00;;;;;;;;;;5076029;28;20020;-75
2022/08/18 01:56:04;;;;;;;5.35;3.80;;;;;;;;;;5076102;28;20112;-75
2022/08/18 01:58:30;;;;;;;4.68;3.92;;;;;;;;;;5075889;28;20028;-75
2022/08/18 02:00:58;;;;;;;7.65;4.10;;;;;;;;;;5076060;28;20032;-75
2022/08/18 02:03:28;;;;;;;4.90;3.90;;;;;;;;;;5057885;28;20111;-74
2022/08/18 02:05:59;;;;;;;5.25;3.90;;;;;;;;;;5076007;28;20112;-76
2022/08/18 02:08:25;;;;;;;6.05;3.67;;;;;;;;;;5058069;28;20083;-75
2022/08/18 02:10:50;;;;;;;8.05;4.10;;;;;;;;;;5075851;28;20454;-76
2022/08/18 02:13:15;;;;;;;4.88;3.50;;;;;;;;;;5075534;28;20033;-76
2022/08/18 02:15:41;;;;;;;5.07;4.10;;;;;;;;;;5075687;28;20374;-76
2022/08/18 02:18:15;;;;;;;9.75;4.13;;;;;;;;;;5075556;28;20611;-75
2022/08/18 02:20:42;;;;;;;5.10;3.65;;;;;;;;;;5057762;28;20482;-76
2022/08/18 02:23:07;;;;;;;5.05;3.88;;;;;;;;;;5075514;28;20029;-75
2022/08/18 02:25:32;;;;;;;5.32;3.83;;;;;;;;;;5075324;28;20027;-74
2022/08/18 02:27:58;;;;;;;4.63;3.93;;;;;;;;;;5075444;28;20103;-75
2022/08/18 02:30:23;;;;;;;4.97;3.80;;;;;;;;;;5075366;28;20300;-75
2022/08/18 02:32:48;;;;;;;6.73;3.83;;;;;;;;;;5075334;28;20265;-76
2022/08/18 02:35:14;;;;;;;5.30;4.15;;;;;;;;;;5075466;28;20272;-76
2022/08/18 02:37:40;;;;;;;4.97;3.80;;;;;;;;;;5075324;28;20020;-75
2022/08/18 02:40:06;;;;;;;6.57;4.28;;;;;;;;;;5075255;28;20508;-75
2022/08/18 02:42:32;;;;;;;7.35;4.40;;;;;;;;;;5075129;28;20032;-76
2022/08/18 02:44:57;;;;;;;7.75;4.20;;;;;;;;;;5075280;28;20066;-74
2022/08/18 02:47:22;;;;;;;9.73;4.57;;;;;;;;;;5075077;28;20470;-75
2022/08/18 02:49:48;;;;;;;6.13;4.43;;;;;;;;;;5075033;28;20020;-75
2022/08/18 02:52:13;;;;;;;8.32;4.40;;;;;;;;;;5074972;28;20257;-75
2022/08/18 02:54:39;;;;;;;5.60;3.97;;;;;;;;;;5056085;28;20031;-76
2022/08/18 02:57:09;;;;;;;8.15;4.30;;;;;;;;;;5074777;28;20485;-75
2022/08/18 02:59:37;;;;;;;4.45;3.72;;;;;;;;;;5075081;28;20056;-73
2022/08/18 03:02:04;;;;;;;5.60;4.10;;;;;;;;;;5056736;28;20451;-75
2022/08/18 03:04:29;;;;;;;4.43;3.92;;;;;;;;;;5074788;28;20047;-75
2022/08/18 03:06:56;;;;;;;6.65;4.18;;;;;;;;;;5074919;28;20545;-75
2022/08/18 03:09:21;;;;;;;6.07;4.07;;;;;;;;;;5056654;28;20028;-75
2022/08/18 03:11:46;;;;;;;4.65;3.83;;;;;;;;;;5075417;28;20424;-75
2022/08/18 03:14:13;;;;;;;5.88;4.18;;;;;;;;;;5074527;28;20133;-77
2022/08/18 03:16:44;;;;;;;5.25;4.07;;;;;;;;;;5074570;28;20374;-75
2022/08/18 03:19:14;;;;;;;6.13;4.53;;;;;;;;;;5074652;28;20078;-74
2022/08/18 03:21:43;;;;;;;7.38;4.32;;;;;;;;;;5074506;28;20028;-76
2022/08/18 03:24:08;;;;;;;6.82;4.68;;;;;;;;;;5055967;28;20025;-77
2022/08/18 03:26:34;;;;;;;8.10;3.97;;;;;;;;;;5074310;28;20451;-76
2022/08/18 03:29:00;;;;;;;4.80;3.78;;;;;;;;;;5057168;28;20365;-75
2022/08/18 03:31:27;;;;;;;5.13;3.97;;;;;;;;;;5074339;28;20393;-76
2022/08/18 03:33:54;;;;;;;4.90;4.05;;;;;;;;;;5074250;28;20036;-76
2022/08/18 03:36:23;;;;;;;7.50;4.38;;;;;;;;;;5075002;28;20052;-75
2022/08/18 03:38:50;;;;;;;7.57;4.18;;;;;;;;;;5075071;28;20059;-75
2022/08/18 03:41:18;;;;;;;5.95;4.38;;;;;;;;;;5074727;28;20390;-76
2022/08/18 03:43:43;;;;;;;12.70;4.75;;;;;;;;;;5074639;28;20062;-75
2022/08/18 03:46:12;;;;;;;10.00;4.72;;;;;;;;;;5074509;28;20105;-77
2022/08/18 03:48:39;;;;;;;5.15;4.10;;;;;;;;;;5074280;28;20021;-76
2022/08/18 03:51:07;;;;;;;5.35;4.03;;;;;;;;;;5074509;28;20020;-75
2022/08/18 03:53:34;;;;;;;6.53;4.00;;;;;;;;;;5074133;28;20039;-76
2022/08/18 03:56:00;;;;;;;4.55;3.92;;;;;;;;;;5073887;28;20029;-76
2022/08/18 03:58:26;;;;;;;7.63;4.05;;;;;;;;;;5074007;28;20120;-76
2022/08/18 04:00:52;;;;;;;4.35;3.92;;;;;;;;;;5073976;28;20032;-77
2022/08/18 04:03:17;;;;;;;6.35;4.10;;;;;;;;;;5073997;28;20397;-75
2022/08/18 04:05:42;;;;;;;5.70;4.00;;;;;;;;;;5074136;28;20508;-76
2022/08/18 04:08:08;;;;;;;9.27;4.07;;;;;;;;;;5074090;28;20047;-74
2022/08/18 04:10:34;;;;;;;8.60;4.65;;;;;;;;;;5056386;28;20292;-77
2022/08/18 04:12:59;;;;;;;9.93;4.65;;;;;;;;;;5073851;28;20024;-74
2022/08/18 04:15:25;;;;;;;7.05;4.35;;;;;;;;;;5073654;28;20038;-75
2022/08/18 04:17:50;;;;;;;4.28;3.88;;;;;;;;;;5073556;28;20504;-76
2022/08/18 04:20:15;;;;;;;5.27;4.33;;;;;;;;;;5073741;28;20435;-76
2022/08/18 04:22:41;;;;;;;8.43;4.15;;;;;;;;;;5074100;28;20296;-75
2022/08/18 04:25:08;;;;;;;7.32;4.78;;;;;;;;;;5074461;28;20047;-75
2022/08/18 04:27:34;;;;;;;5.47;4.57;;;;;;;;;;5057457;28;20020;-76
2022/08/18 04:29:59;;;;;;;6.50;4.30;;;;;;;;;;5077010;28;20031;-75
2022/08/18 04:32:24;;;;;;;6.53;4.40;;;;;;;;;;5083513;28;20064;-75
2022/08/18 04:34:49;;;;;;;6.78;4.35;;;;;;;;;;5085716;28;20256;-75
2022/08/18 04:37:16;;;;;;;10.73;4.38;;;;;;;;;;5086476;28;20048;-75
2022/08/18 04:39:41;;;;;;;8.77;5.18;;;;;;;;;;5085773;28;20030;-76
2022/08/18 04:42:07;;;;;;;13.25;4.70;;;;;;;;;;5085886;28;20056;-75
2022/08/18 04:44:33;;;;;;;9.52;4.70;;;;;;;;;;5086204;28;20032;-75
2022/08/18 04:46:59;;;;;;;6.68;4.82;;;;;;;;;;5086541;28;20051;-74
2022/08/18 04:49:25;;;;;;;6.07;4.40;;;;;;;;;;5086649;28;20029;-75
2022/08/18 04:54:38;;;;;;;5.13;3.95;;;;;;;;;;5084348;28;20096;-76
2022/08/18 04:57:12;;;;;;;10.40;4.30;;;;;;;;;;5083717;28;20036;-74
2022/08/18 04:59:39;;;;;;;6.30;4.10;;;;;;;;;;5086012;28;20028;-75
2022/08/18 05:02:07;;;;;;;5.25;3.90;;;;;;;;;;5068634;28;20024;-75
2022/08/18 05:04:34;;;;;;;8.77;4.43;;;;;;;;;;5079794;28;20139;-75
2022/08/18 05:07:00;;;;;;;14.23;4.47;;;;;;;;;;5073155;28;20024;-74
2022/08/18 05:09:25;;;;;;;7.68;4.28;;;;;;;;;;5072609;28;20024;-74
2022/08/18 05:11:50;;;;;;;6.47;3.93;;;;;;;;;;5072838;28;20108;-75
2022/08/18 05:14:16;;;;;;;7.30;4.53;;;;;;;;;;5072486;28;20299;-76
2022/08/18 05:16:41;;;;;;;7.03;4.65;;;;;;;;;;5072158;28;20537;-76
2022/08/18 05:19:10;;;;;;;4.77;4.27;;;;;;;;;;5072530;28;20024;-75
2022/08/18 05:21:36;;;;;;;7.88;4.40;;;;;;;;;;5054395;28;20257;-75
2022/08/18 05:24:02;;;;;;;11.68;4.50;;;;;;;;;;5072261;28;20371;-75
2022/08/18 05:26:27;;;;;;;7.22;4.28;;;;;;;;;;5072427;28;20028;-76
2022/08/18 05:28:53;;;;;;;9.10;4.88;;;;;;;;;;5072462;28;20036;-74
2022/08/18 05:31:21;;;;;;;7.13;4.15;;;;;;;;;;5072418;28;20034;-75
2022/08/18 05:33:47;;;;;;;8.05;4.80;;;;;;;;;;5072285;28;20024;-75
2022/08/18 05:36:49;;;;;;;6.15;4.63;;;;;;;;;;5072265;28;20039;-75
2022/08/18 05:39:35;;;;;;;6.30;4.65;;;;;;;;;;5054210;28;20021;-75
2022/08/18 05:42:17;;;;;;;8.65;5.28;;;;;;;;;;5072465;28;20052;-73
2022/08/18 05:44:48;;;;;;;6.18;4.60;;;;;;;;;;5072268;28;20024;-74
2022/08/18 05:47:28;;;;;;;8.57;4.68;;;;;;;;;;5071982;28;20033;-75
2022/08/18 05:49:56;;;;;;;6.00;4.47;;;;;;;;;;5072769;28;20043;-76
2022/08/18 05:52:30;;;;;;;7.03;5.00;;;;;;;;;;5071937;28;20020;-75
2022/08/18 05:57:56;;;;;;;9.05;4.82;;;;;;;;;;5072245;28;20036;-76
2022/08/18 06:00:23;;;;;;;7.47;4.97;;;;;;;;;;5072315;28;20469;-76
2022/08/18 06:02:57;;;;;;;10.02;4.72;;;;;;;;;;5071900;28;20037;-76
2022/08/18 06:05:27;;;;;;;9.30;5.15;;;;;;;;;;5072075;28;20441;-74
2022/08/18 06:07:59;;;;;;;10.55;4.60;;;;;;;;;;5071751;28;20078;-75
2022/08/18 06:10:25;;;;;;;8.48;4.78;;;;;;;;;;5053829;28;20032;-75
2022/08/18 06:13:00;;;;;;;8.68;4.82;;;;;;;;;;5071729;28;20036;-75
2022/08/18 06:15:36;;;;;;;7.38;4.70;;;;;;;;;;5053798;28;20024;-74
2022/08/18 06:18:15;;;;;;;8.30;5.00;;;;;;;;;;5072433;28;20470;-75
2022/08/18 06:21:04;;;;;;;8.32;4.65;;;;;;;;;;5071943;28;20436;-75
2022/08/18 06:23:41;;;;;;;9.13;5.85;;;;;;;;;;5054213;28;20435;-76
2022/08/18 06:26:23;;;;;;;9.95;6.03;;;;;;;;;;5053719;28;20024;-76
2022/08/18 06:29:21;;;;;;;7.60;5.20;;;;;;;;;;5073200;28;20103;-77
2022/08/18 06:32:19;;;;;;;12.60;5.32;;;;;;;;;;5075292;28;20035;-75
2022/08/18 06:35:00;;;;;;;11.43;5.15;;;;;;;;;;5019476;28;20132;-76
2022/08/18 06:40:31;;;;;;;6.72;4.60;;;;;;;;;;5075317;28;20035;-76
2022/08/18 06:42:56;;;;;;;8.20;5.07;;;;;;;;;;5075021;28;20385;-76
2022/08/18 06:45:31;;;;;;;10.93;5.33;;;;;;;;;;5074992;28;20313;-76
2022/08/18 06:48:10;;;;;;;9.52;5.10;;;;;;;;;;5074836;28;20252;-74
2022/08/18 06:50:48;;;;;;;18.80;5.50;;;;;;;;;;5075039;28;20469;-75
2022/08/18 06:53:13;;;;;;;9.73;5.35;;;;;;;;;;5074844;28;20040;-76
2022/08/18 06:55:43;;;;;;;10.38;5.22;;;;;;;;;;5074621;28;20029;-76
2022/08/18 06:58:11;;;;;;;11.88;5.18;;;;;;;;;;5074582;28;20029;-76
2022/08/18 07:00:40;;;;;;;9.77;4.82;;;;;;;;;;5056755;28;20383;-75
2022/08/18 07:03:15;;;;;;;7.03;4.47;;;;;;;;;;5075151;28;20027;-75
2022/08/18 07:05:59;;;;;;;10.85;4.68;;;;;;;;;;5074804;28;20481;-74
2022/08/18 07:08:30;;;;;;;;;;;;;;;;;;5074965;28;20178;-74
2022/08/18 07:11:11;;;;;;;12.13;4.28;;;;;;;;;;5074502;28;19908;-75
2022/08/18 07:13:41;;;;;;;8.43;4.78;;;;;;;;;;5056509;28;20047;-75
2022/08/18 07:16:27;;;;;;;7.20;4.78;;;;;;;;;;5074586;28;20414;-76
2022/08/18 07:18:53;;;;;;;10.85;4.93;;;;;;;;;;5056461;28;20035;-74
2022/08/18 07:21:25;;;;;;;7.25;4.78;;;;;;;;;;5074427;28;20025;-74
2022/08/18 07:23:59;;;;;;;8.45;4.72;;;;;;;;;;5074280;28;20092;-74
2022/08/18 07:26:25;;;;;;;8.40;5.18;;;;;;;;;;5074554;28;20059;-75
2022/08/18 07:28:51;;;;;;;10.55;5.10;;;;;;;;;;5056082;28;20048;-76
2022/08/18 07:31:45;;;;;;;6.40;4.88;;;;;;;;;;5056011;28;20028;-75
2022/08/18 07:34:26;;;;;;;6.75;4.88;;;;;;;;;;5074246;28;20398;-74
2022/08/18 07:37:02;;;;;;;11.50;4.85;;;;;;;;;;5074341;28;20024;-74
2022/08/18 07:39:36;;;;;;;7.28;4.70;;;;;;;;;;5073799;28;20075;-75
2022/08/18 07:42:17;;;;;;;7.55;4.68;;;;;;;;;;5073958;28;20063;-75
2022/08/18 07:44:56;;;;;;;11.10;4.95;;;;;;;;;;5073676;28;20036;-74
2022/08/18 07:47:27;;;;;;;9.77;4.50;;;;;;;;;;5074324;28;20059;-75
2022/08/18 07:49:57;;;;;;;9.65;4.90;;;;;;;;;;5074339;28;20029;-74
2022/08/18 07:52:35;;;;;;;11.73;4.88;;;;;;;;;;5073839;28;20059;-74
2022/08/18 07:55:15;;;;;;;12.45;5.05;;;;;;;;;;5073552;28;20461;-75
2022/08/18 07:57:47;;;;;;;7.82;4.95;;;;;;;;;;5073719;28;20433;-75
2022/08/18 08:00:30;;;;;;;7.23;4.77;;;;;;;;;;5073747;28;20024;-75
2022/08/18 08:03:14;;;;;;;14.10;5.10;;;;;;;;;;5073825;28;20424;-76
2022/08/18 08:06:17;;;;;;;9.70;5.25;;;;;;;;;;5073436;28;20028;-75
2022/08/18 08:08:53;;;;;;;12.70;5.35;;;;;;;;;;5043202;28;20136;-73
2022/08/18 08:11:40;;;;;;;11.30;5.60;;;;;;;;;;5055369;28;20115;-73
2022/08/18 08:14:30;;;;;;;12.98;5.03;;;;;;;;;;5073049;28;20385;-74
2022/08/18 08:17:05;;;;;;;13.70;5.25;;;;;;;;;;5073104;28;20020;-76
2022/08/18 08:19:44;;;;;;;15.90;5.07;;;;;;;;;;5073360;28;20027;-75
2022/08/18 08:22:35;;;;;;;9.80;4.50;;;;;;;;;;5073415;28;20067;-75
2022/08/18 08:25:12;;;;;;;7.82;4.97;;;;;;;;;;5072944;28;20078;-75
2022/08/18 08:28:01;;;;;;;9.35;5.10;;;;;;;;;;5072879;28;20055;-75
2022/08/18 08:30:34;;;;;;;17.67;5.30;;;;;;;;;;5073180;28;20024;-75
2022/08/18 08:33:30;;;;;;;8.70;5.20;;;;;;;;;;5055048;28;20020;-75
2022/08/18 08:36:17;;;;;;;8.85;5.25;;;;;;;;;;5072812;28;20032;-74
2022/08/18 08:38:53;;;;;;;9.98;5.35;;;;;;;;;;5072773;28;20024;-73
2022/08/18 08:41:30;;;;;;;8.88;5.40;;;;;;;;;;5072882;28;20028;-75
2022/08/18 08:44:08;;;;;;;11.98;5.20;;;;;;;;;;5072578;28;20039;-74
2022/08/18 08:46:54;;;;;;;11.43;5.32;;;;;;;;;;5072767;28;20020;-75
2022/08/18 08:49:31;;;;;;;9.10;5.18;;;;;;;;;;5072648;28;20545;-76
2022/08/18 08:52:10;;;;;;;9.68;4.88;;;;;;;;;;5072197;28;20075;-74
2022/08/18 08:54:49;;;;;;;7.80;5.03;;;;;;;;;;5072667;28;20052;-73
2022/08/18 08:57:16;;;;;;;8.30;5.00;;;;;;;;;;5054559;28;20029;-75
2022/08/18 08:59:46;;;;;;;10.27;5.50;;;;;;;;;;5072956;28;20020;-75
2022/08/18 09:02:32;;;;;;;5.63;4.82;;;;;;;;;;5054371;28;20021;-75
2022/08/18 09:05:14;;;;;;;6.35;4.80;;;;;;;;;;5072456;28;20028;-74
2022/08/18 09:07:46;;;;;;;8.75;4.78;;;;;;;;;;5072670;28;20079;-74
2022/08/18 09:10:40;;;;;;;12.30;5.38;;;;;;;;;;5072593;28;20023;-76
2022/08/18 09:13:15;;;;;;;9.38;4.60;;;;;;;;;;5054349;28;20497;-76
2022/08/18 09:16:20;;;;;;;7.13;4.55;;;;;;;;;;5072636;28;20094;-75
2022/08/18 09:19:14;;;;;;;7.65;4.32;;;;;;;;;;5054347;28;20166;-74
2022/08/18 09:21:46;;;;;;;9.45;4.97;;;;;;;;;;5072446;28;20016;-75
2022/08/18 09:24:51;;;;;;;5.97;4.90;;;;;;;;;;5072037;28;20025;-76
2022/08/18 09:27:40;;;;;;;18.13;4.72;;;;;;;;;;5067345;28;20391;-75
2022/08/18 09:30:26;;;;;;;10.55;4.97;;;;;;;;;;5072125;28;20021;-75
2022/08/18 09:33:03;;;;;;;7.50;4.90;;;;;;;;;;5071814;28;20032;-75
2022/08/18 09:35:36;;;;;;;6.50;4.32;;;;;;;;;;5072420;28;20086;-75
2022/08/18 09:44:10;;;;;;;9.00;4.55;;;;;;;;;;5058317;28;20040;-77
2022/08/18 09:46:41;;;;;;;12.95;5.20;;;;;;;;;;5073354;28;20024;-77
2022/08/18 09:49:37;;;;;;;9.18;5.18;;;;;;;;;;5055385;28;20466;-78
2022/08/18 09:52:21;;;;;;;10.70;4.70;;;;;;;;;;5073090;28;20031;-76
2022/08/18 09:55:00;;;;;;;6.88;4.72;;;;;;;;;;5071902;28;20021;-75
2022/08/18 09:57:33;;;;;;;10.90;4.25;;;;;;;;;;5054392;28;20035;-77
2022/08/18 10:00:02;;;;;;;13.93;5.05;;;;;;;;;;5072871;28;20025;-76
2022/08/18 10:02:36;;;;;;;7.78;5.10;;;;;;;;;;5072933;28;20028;-76
2022/08/18 10:05:19;;;;;;;6.38;4.43;;;;;;;;;;5075961;28;20035;-77
2022/08/18 10:08:13;;;;;;;8.13;5.18;;;;;;;;;;5058804;28;20021;-76
2022/08/18 10:10:57;;;;;;;9.05;4.88;;;;;;;;;;5076343;28;20436;-77
2022/08/18 10:13:37;;;;;;;8.50;4.10;;;;;;;;;;5076088;28;20074;-77
2022/08/18 10:16:30;;;;;;;7.32;4.40;;;;;;;;;;5057629;28;20460;-76
2022/08/18 10:19:33;;;;;;;7.33;4.80;;;;;;;;;;5076409;28;20024;-77
2022/08/18 10:21:58;;;;;;;10.25;4.53;;;;;;;;;;5076012;28;20364;-77
2022/08/18 10:24:39;;;;;;;9.17;5.27;;;;;;;;;;5075438;28;20024;-77
2022/08/18 10:27:45;;;;;;;11.45;4.82;;;;;;;;;;5075788;28;20047;-77
2022/08/18 10:30:34;;;;;;;13.63;4.75;;;;;;;;;;5075454;28;20024;-76
2022/08/18 10:33:06;;;;;;;13.02;4.93;;;;;;;;;;5042430;28;20044;-76
2022/08/18 10:35:34;;;;;;;8.57;4.60;;;;;;;;;;5075574;28;20092;-78
2022/08/18 10:38:12;;;;;;;7.22;4.60;;;;;;;;;;5075817;28;20111;-75
2022/08/18 10:40:42;;;;;;;12.40;4.57;;;;;;;;;;5076195;28;20067;-77
2022/08/18 10:43:22;;;;;;;10.70;4.70;;;;;;;;;;5041320;28;20024;-76
2022/08/18 10:45:50;;;;;;;13.57;4.15;;;;;;;;;;5075896;28;20033;-77
2022/08/18 10:48:32;;;;;;;19.30;5.32;;;;;;;;;;5076764;28;20032;-78
2022/08/18 10:51:08;;;;;;;12.77;4.85;;;;;;;;;;5076399;28;20031;-77
2022/08/18 10:54:09;;;;;;;9.50;4.63;;;;;;;;;;5057515;28;20164;-77
2022/08/18 10:56:46;;;;;;;8.88;4.50;;;;;;;;;;5078151;28;20528;-77
2022/08/18 10:59:21;;;;;;;9.82;4.55;;;;;;;;;;5057363;28;20438;-76
2022/08/18 11:01:46;;;;;;;15.88;4.65;;;;;;;;;;5075670;28;20071;-75
2022/08/18 11:04:26;;;;;;;11.80;4.77;;;;;;;;;;5074632;28;20060;-75
2022/08/18 11:07:01;;;;;;;11.98;4.07;;;;;;;;;;5075312;28;20025;-75
2022/08/18 11:09:29;;;;;;;11.05;4.10;;;;;;;;;;5074473;28;20440;-74
2022/08/18 11:11:58;;;;;;;14.05;4.47;;;;;;;;;;5074462;28;20024;-76
2022/08/18 11:14:57;;;;;;;8.07;4.13;;;;;;;;;;5056006;28;20021;-75
2022/08/18 11:17:31;;;;;;;10.20;3.70;;;;;;;;;;5075143;28;20021;-74
2022/08/18 11:19:59;;;;;;;14.32;4.10;;;;;;;;;;5075144;28;20078;-75
2022/08/18 11:22:28;;;;;;;19.67;3.90;;;;;;;;;;5075009;28;20055;-75
2022/08/18 11:24:53;;;;;;;11.13;4.15;;;;;;;;;;5056587;28;20021;-75
2022/08/18 11:27:22;;;;;;;9.23;3.70;;;;;;;;;;5056743;28;20025;-75
2022/08/18 11:29:48;;;;;;;10.82;3.83;;;;;;;;;;5074838;28;20016;-75
2022/08/18 11:32:36;;;;;;;8.30;3.90;;;;;;;;;;5075124;28;20027;-75
2022/08/18 11:35:09;;;;;;;9.82;3.40;;;;;;;;;;5056540;28;20048;-76
2022/08/18 11:37:42;;;;;;;;;;;;;;;;;;5057136;28;20078;-76
2022/08/18 11:40:25;;;;;;;9.80;3.72;;;;;;;;;;5074484;28;19912;-74
2022/08/18 11:43:01;;;;;;;14.55;3.80;;;;;;;;;;5074459;28;20021;-74
2022/08/18 11:45:32;;;;;;;8.63;4.03;;;;;;;;;;5074417;28;20036;-74
2022/08/18 11:48:13;;;;;;;12.05;3.45;;;;;;;;;;5056286;28;20142;-75
2022/08/18 11:50:53;;;;;;;16.80;4.57;;;;;;;;;;5074390;28;20125;-75
2022/08/18 11:53:43;;;;;;;16.33;4.00;;;;;;;;;;5074630;28;20020;-74
2022/08/18 11:56:25;;;;;;;14.38;4.35;;;;;;;;;;5063047;28;20040;-73
2022/08/18 11:59:08;;;;;;;13.25;3.83;;;;;;;;;;5073920;28;20111;-74
2022/08/18 12:01:53;;;;;;;11.73;4.22;;;;;;;;;;5074027;28;20025;-75
2022/08/18 12:04:19;;;;;;;21.52;4.80;;;;;;;;;;5074081;28;20385;-75
2022/08/18 12:07:05;;;;;;;17.08;4.60;;;;;;;;;;5074448;28;20108;-75
2022/08/18 12:09:47;;;;;;;13.48;4.43;;;;;;;;;;5074034;28;20416;-76
2022/08/18 12:12:21;;;;;;;15.73;4.72;;;;;;;;;;5074087;28;20056;-76
2022/08/18 12:14:58;;;;;;;11.52;4.13;;;;;;;;;;5073744;28;20021;-74
2022/08/18 12:17:25;;;;;;;12.90;4.07;;;;;;;;;;5055854;28;20025;-74
2022/08/18 12:19:51;;;;;;;10.95;4.13;;;;;;;;;;5073681;28;20099;-75
2022/08/18 12:22:20;;;;;;;10.05;4.22;;;;;;;;;;5073879;28;20112;-75
2022/08/18 12:24:46;;;;;;;16.55;4.20;;;;;;;;;;5073380;28;20083;-75
2022/08/18 12:27:17;;;;;;;10.32;4.78;;;;;;;;;;5055686;28;20481;-75
2022/08/18 12:29:42;;;;;;;9.80;4.25;;;;;;;;;;5073765;28;20074;-75
2022/08/18 12:32:08;;;;;;;11.85;4.13;;;;;;;;;;5073604;28;20032;-75
2022/08/18 12:34:34;;;;;;;8.95;4.20;;;;;;;;;;5073500;28;20025;-75
2022/08/18 12:37:00;;;;;;;12.15;4.22;;;;;;;;;;5073399;28;20547;-76
2022/08/18 12:39:25;;;;;;;18.92;4.60;;;;;;;;;;5073514;28;20051;-76
2022/08/18 12:41:51;;;;;;;10.73;4.40;;;;;;;;;;5073493;28;20075;-76
2022/08/18 12:44:16;;;;;;;13.65;4.40;;;;;;;;;;5073605;28;20055;-76
2022/08/18 12:46:41;;;;;;;16.20;4.67;;;;;;;;;;5073396;28;20052;-75
2022/08/18 12:49:15;;;;;;;6.65;4.18;;;;;;;;;;5073437;28;20036;-75
2022/08/18 12:51:40;;;;;;;;;;;;;;;;;;5055671;28;20484;-76
2022/08/18 12:54:05;;;;;;;7.33;4.20;;;;;;;;;;5073056;28;19908;-76
2022/08/18 12:56:31;;;;;;;20.40;4.00;;;;;;;;;;5073122;28;20036;-74
2022/08/18 12:58:59;;;;;;;12.70;4.68;;;;;;;;;;5073159;28;20040;-77
2022/08/18 13:01:25;;;;;;;9.70;4.20;;;;;;;;;;5072740;28;20433;-75
2022/08/18 13:03:52;;;;;;;11.25;4.32;;;;;;;;;;5072898;28;20024;-75
2022/08/18 13:06:18;;;;;;;10.23;4.25;;;;;;;;;;5072885;28;20035;-75
2022/08/18 13:09:11;;;;;;;8.85;4.10;;;;;;;;;;5072819;28;20024;-75
2022/08/18 13:11:36;;;;;;;14.83;4.50;;;;;;;;;;5054976;28;20529;-75
2022/08/18 13:14:02;;;;;;;10.17;3.87;;;;;;;;;;5055000;28;20032;-74
2022/08/18 13:16:30;;;;;;;9.85;4.07;;;;;;;;;;5072548;28;20043;-75
2022/08/18 13:18:55;;;;;;;13.65;4.40;;;;;;;;;;5072775;28;20032;-75
2022/08/18 13:21:20;;;;;;;12.63;4.50;;;;;;;;;;5072985;28;20031;-76
2022/08/18 13:23:45;;;;;;;21.57;4.80;;;;;;;;;;5072672;28;20278;-74
2022/08/18 13:26:25;;;;;;;21.53;4.80;;;;;;;;;;5072800;28;20055;-74
2022/08/18 13:28:50;;;;;;;19.50;4.72;;;;;;;;;;5072894;28;20024;-74
2022/08/18 13:31:15;;;;;;;21.50;4.60;;;;;;;;;;5072856;28;20025;-74
2022/08/18 13:33:41;;;;;;;11.70;5.23;;;;;;;;;;5073066;28;20033;-76
2022/08/18 13:36:07;;;;;;;12.48;4.50;;;;;;;;;;5055256;28;20344;-75
2022/08/18 13:38:32;;;;;;;13.23;4.60;;;;;;;;;;5075345;28;20039;-75
2022/08/18 13:40:59;;;;;;;10.88;4.78;;;;;;;;;;5058843;28;20025;-75
2022/08/18 13:43:34;;;;;;;13.88;5.10;;;;;;;;;;5076670;28;20035;-74
2022/08/18 13:46:00;;;;;;;10.88;4.97;;;;;;;;;;5058897;28;20032;-74
2022/08/18 13:48:27;;;;;;;13.77;4.55;;;;;;;;;;5076567;28;20036;-76
2022/08/18 13:50:53;;;;;;;12.95;5.03;;;;;;;;;;5076510;28;20020;-75
2022/08/18 13:53:20;;;;;;;9.30;4.78;;;;;;;;;;5076502;28;20059;-73
2022/08/18 13:55:45;;;;;;;13.48;5.32;;;;;;;;;;5076437;28;20024;-76
2022/08/18 13:58:11;;;;;;;14.38;4.88;;;;;;;;;;5058000;28;20029;-78
2022/08/18 14:00:37;;;;;;;7.43;4.82;;;;;;;;;;5076209;28;20029;-75
2022/08/18 14:03:03;;;;;;;9.30;4.82;;;;;;;;;;5076041;28;20071;-74
2022/08/18 14:05:30;;;;;;;9.15;4.97;;;;;;;;;;5057892;28;20032;-76
2022/08/18 14:07:55;;;;;;;9.18;4.70;;;;;;;;;;5076399;28;20074;-76
2022/08/18 14:10:20;;;;;;;15.03;5.47;;;;;;;;;;5076196;28;20028;-75
2022/08/18 14:12:46;;;;;;;18.50;4.97;;;;;;;;;;5075668;28;20285;-76
2022/08/18 14:15:13;;;;;;;9.55;4.50;;;;;;;;;;5058038;28;20017;-77
2022/08/18 14:17:39;;;;;;;14.75;4.70;;;;;;;;;;5076143;28;20100;-76
2022/08/18 14:28:24;;;;;;;13.32;5.10;;;;;;;;;;5075959;28;20122;-75
2022/08/18 14:30:49;;;;;;;12.80;4.80;;;;;;;;;;5075530;28;20051;-74
2022/08/18 14:33:19;;;;;;;10.23;4.65;;;;;;;;;;5057584;28;20308;-77
2022/08/18 14:35:44;;;;;;;13.15;4.90;;;;;;;;;;5057624;28;20466;-74
2022/08/18 14:38:09;;;;;;;15.67;5.10;;;;;;;;;;5075307;28;20028;-75
2022/08/18 14:40:37;;;;;;;14.98;5.00;;;;;;;;;;5075345;28;20419;-75
2022/08/18 14:43:03;;;;;;;14.35;5.32;;;;;;;;;;5075330;28;20214;-77
2022/08/18 14:45:28;;;;;;;10.20;5.22;;;;;;;;;;5075226;28;20134;-74
2022/08/18 14:47:55;;;;;;;13.85;4.70;;;;;;;;;;5075523;28;20028;-73
2022/08/18 14:50:21;;;;;;;14.32;5.03;;;;;;;;;;5074041;28;20576;-75
2022/08/18 14:52:47;;;;;;;12.43;5.03;;;;;;;;;;5075219;28;20028;-74
2022/08/18 14:55:14;;;;;;;13.45;4.93;;;;;;;;;;5075237;28;20504;-75
2022/08/18 14:57:39;;;;;;;9.80;5.45;;;;;;;;;;5075273;28;20033;-76
2022/08/18 15:00:10;;;;;;;10.95;5.50;;;;;;;;;;5075066;28;20445;-75
2022/08/18 15:02:37;;;;;;;9.85;5.45;;;;;;;;;;5075423;28;20070;-75
2022/08/18 15:05:03;;;;;;;16.00;5.43;;;;;;;;;;5074805;28;20544;-74
2022/08/18 15:07:28;;;;;;;14.95;5.50;;;;;;;;;;5074880;28;20059;-76
2022/08/18 15:09:54;;;;;;;20.53;5.57;;;;;;;;;;5075231;28;20099;-74
2022/08/18 15:12:19;;;;;;;15.75;5.78;;;;;;;;;;5075098;28;20775;-74
2022/08/18 15:14:46;;;;;;;9.88;5.68;;;;;;;;;;5074872;28;20017;-75
2022/08/18 15:17:11;;;;;;;11.20;4.93;;;;;;;;;;5074798;28;20421;-76
2022/08/18 15:19:37;;;;;;;9.73;5.53;;;;;;;;;;5074945;28;20024;-74
2022/08/18 15:27:38;;;;;;;10.43;5.82;;;;;;;;;;5074742;28;20495;-75
2022/08/18 15:30:11;;;;;;;16.25;5.60;;;;;;;;;;5074931;28;20509;-75
2022/08/18 15:32:37;;;;;;;20.65;5.43;;;;;;;;;;5056433;28;20021;-76
2022/08/18 15:35:03;;;;;;;10.43;5.60;;;;;;;;;;5074727;28;20028;-76
2022/08/18 15:37:32;;;;;;;12.02;5.97;;;;;;;;;;5074434;28;20039;-76
2022/08/18 15:40:15;;;;;;;18.55;6.00;;;;;;;;;;5074282;28;20024;-75